Information Last Ob Photographs Calibration Meteogram Network Table Neighbors Monthly Summaries Observation History Wind Roses Custom Wind Roses Data Calendar Satellite Cloud Product Download

Most Recent Observation

This application displays the last observation received by the IEM from this site. The time stamp is in America/Chicago timezone.

Observation Local Time01 Mar 2024, 11:35 PM
Observation UTC Time2024-03-02T05:35:00Z
Air Temp [F]39.2
Maximum Air Temperature [F]55.4
Minimum Air Temperature [F]26.6
Dew Point [F]33.8
Wind DirectionS (180 degrees)
Wind Speed [knots]8
Altimeter [inches]29.88
Raw Observation/ProductKBNW 020535Z AUTO 18008KT 10SM CLR 04/01 A2988 RMK AO2
Cloud Layer 1: CLR ( feet)

This data was provided by a JSON(P) webservice. You can find more JSON services.